createdAt,value
2022-10-19T00:01:08.186Z,7.03
2022-10-19T00:03:38.854Z,8.90
2022-10-19T00:06:33.279Z,8.98
2022-10-19T00:09:02.129Z,6.90
2022-10-19T00:11:36.714Z,11.07
2022-10-19T00:14:03.618Z,5.65
2022-10-19T00:16:33.748Z,7.57
2022-10-19T00:19:02.717Z,6.25
2022-10-19T00:21:29.157Z,9.40
2022-10-19T00:23:55.816Z,10.25
2022-10-19T00:26:22.314Z,11.48
2022-10-19T00:28:48.857Z,12.80
2022-10-19T00:31:16.922Z,10.52
2022-10-19T00:33:46.596Z,7.57
2022-10-19T00:36:17.510Z,9.13
2022-10-19T00:38:46.853Z,8.35
2022-10-19T00:41:13.752Z,8.15
2022-10-19T00:43:53.928Z,10.27
2022-10-19T00:46:20.887Z,8.80
2022-10-19T00:51:19.127Z,9.52
2022-10-19T00:53:45.636Z,12.57
2022-10-19T00:56:14.292Z,8.88
2022-10-19T00:58:41.914Z,9.40
2022-10-19T01:01:09.596Z,7.68
2022-10-19T01:03:36.119Z,9.32
2022-10-19T01:06:03.380Z,9.15
2022-10-19T01:08:30.519Z,10.43
2022-10-19T01:11:27.574Z,8.43
2022-10-19T01:14:00.040Z,9.02
2022-10-19T01:16:44.789Z,12.25
2022-10-19T01:19:32.852Z,9.23
2022-10-19T01:22:12.295Z,8.10
2022-10-19T01:25:03.484Z,9.63
2022-10-19T01:27:51.464Z,9.05
2022-10-19T01:30:24.055Z,9.65
2022-10-19T01:35:49.089Z,10.05
2022-10-19T01:38:45.970Z,8.38
2022-10-19T01:41:24.718Z,8.93
2022-10-19T01:43:58.708Z,9.98
2022-10-19T01:46:41.771Z,8.88
2022-10-19T01:49:17.478Z,8.15
2022-10-19T01:51:48.489Z,8.25
2022-10-19T01:54:22.146Z,6.15
2022-10-19T01:56:49.816Z,9.05
2022-10-19T01:59:21.293Z,6.07
2022-10-19T02:01:49.000Z,9.45
2022-10-19T02:04:18.309Z,10.82
2022-10-19T02:06:44.844Z,8.70
2022-10-19T02:09:18.353Z,7.18
2022-10-19T02:11:49.615Z,10.25
2022-10-19T02:14:24.309Z,11.95
2022-10-19T02:16:59.761Z,8.25
2022-10-19T02:19:29.610Z,11.15
2022-10-19T02:21:56.525Z,8.73
2022-10-19T02:24:23.620Z,10.15
2022-10-19T02:26:50.218Z,6.57
2022-10-19T02:29:16.881Z,11.07
2022-10-19T02:31:43.635Z,7.72
2022-10-19T02:34:10.308Z,8.40
2022-10-19T02:36:38.153Z,8.48
2022-10-19T02:39:05.004Z,9.48
2022-10-19T02:41:36.892Z,7.03
2022-10-19T02:44:15.352Z,8.35
2022-10-19T02:46:44.672Z,9.90
2022-10-19T02:49:12.271Z,8.63
2022-10-19T02:51:41.020Z,9.65
2022-10-19T02:54:08.328Z,10.55
2022-10-19T02:56:39.950Z,8.23
2022-10-19T02:59:06.416Z,10.95
2022-10-19T03:01:35.890Z,9.32
2022-10-19T03:04:02.317Z,7.55
2022-10-19T03:06:29.714Z,8.93
2022-10-19T03:08:56.144Z,9.13
2022-10-19T03:11:22.598Z,9.40
2022-10-19T03:13:49.038Z,10.13
2022-10-19T03:16:15.527Z,6.38
2022-10-19T03:18:42.206Z,7.97
2022-10-19T03:21:22.314Z,9.80
2022-10-19T03:23:48.811Z,6.55
2022-10-19T03:26:17.331Z,11.95
2022-10-19T03:28:43.895Z,13.30
2022-10-19T03:31:10.415Z,9.15
2022-10-19T03:33:40.673Z,12.52
2022-10-19T03:36:26.296Z,8.15
2022-10-19T03:38:54.343Z,8.82
2022-10-19T03:41:25.465Z,9.88
2022-10-19T03:43:52.252Z,9.70
2022-10-19T03:46:19.260Z,11.27
2022-10-19T03:48:45.918Z,9.50
2022-10-19T03:51:20.597Z,9.25
2022-10-19T03:53:47.726Z,9.35
2022-10-19T03:56:18.573Z,11.85
2022-10-19T03:58:46.823Z,12.55
2022-10-19T04:01:18.683Z,9.48
2022-10-19T04:03:45.477Z,7.03
2022-10-19T04:06:17.068Z,6.93
2022-10-19T04:08:48.749Z,8.98
2022-10-19T04:11:17.047Z,10.63
2022-10-19T04:13:43.555Z,7.15
2022-10-19T04:16:16.271Z,8.82
2022-10-19T04:18:43.510Z,6.53
2022-10-19T04:21:22.980Z,8.75
2022-10-19T04:23:51.221Z,9.57
2022-10-19T04:26:18.460Z,7.00
2022-10-19T04:28:44.968Z,10.48
2022-10-19T04:31:12.871Z,9.18
2022-10-19T04:33:40.396Z,10.73
2022-10-19T04:36:11.877Z,9.82
2022-10-19T04:38:38.853Z,12.32
2022-10-19T04:41:12.938Z,12.65
2022-10-19T04:43:39.866Z,10.80
2022-10-19T04:46:08.675Z,11.88
2022-10-19T04:48:37.516Z,12.40
2022-10-19T04:51:04.607Z,11.65
2022-10-19T04:53:35.126Z,9.68
2022-10-19T04:56:05.501Z,7.57
2022-10-19T04:58:32.148Z,7.30
2022-10-19T05:00:58.593Z,6.68
2022-10-19T05:03:25.044Z,7.90
2022-10-19T05:05:51.519Z,7.82
2022-10-19T05:08:17.952Z,11.88
2022-10-19T05:10:47.617Z,11.80
2022-10-19T05:13:14.495Z,9.05
2022-10-19T05:15:44.949Z,10.80
2022-10-19T05:18:11.359Z,7.55
2022-10-19T05:20:37.813Z,9.40
2022-10-19T05:23:06.422Z,10.98
2022-10-19T05:25:34.052Z,9.05
2022-10-19T05:28:00.617Z,5.30
2022-10-19T05:30:27.033Z,9.98
2022-10-19T05:32:53.437Z,8.30
2022-10-19T05:35:22.695Z,5.60
2022-10-19T05:37:54.387Z,7.30
2022-10-19T05:40:20.943Z,7.30
2022-10-19T05:42:47.376Z,7.80
2022-10-19T05:45:13.822Z,7.68
2022-10-19T05:47:45.559Z,7.38
2022-10-19T05:50:11.995Z,8.20
2022-10-19T05:52:38.392Z,6.03
2022-10-19T05:55:05.353Z,10.55
2022-10-19T05:57:33.044Z,10.35
2022-10-19T06:00:05.330Z,10.80
2022-10-19T06:02:32.786Z,8.80
2022-10-19T06:04:59.300Z,6.80
2022-10-19T06:07:25.746Z,10.35
2022-10-19T06:09:52.175Z,8.48
2022-10-19T06:12:22.843Z,9.68
2022-10-19T06:14:54.801Z,10.65
2022-10-19T06:17:21.244Z,11.32
2022-10-19T06:19:47.753Z,9.07
2022-10-19T06:22:14.177Z,7.60
2022-10-19T06:24:40.587Z,11.25
2022-10-19T06:27:07.109Z,11.02
2022-10-19T06:29:36.548Z,6.00
2022-10-19T06:32:03.174Z,9.95
2022-10-19T06:34:29.671Z,9.63
2022-10-19T06:36:56.491Z,5.55
2022-10-19T06:39:22.867Z,8.30
2022-10-19T06:41:50.525Z,6.68
2022-10-19T06:44:17.004Z,7.80
2022-10-19T06:46:46.492Z,6.68
2022-10-19T06:49:14.216Z,9.20
2022-10-19T06:51:40.691Z,9.68
2022-10-19T06:54:07.590Z,12.57
2022-10-19T06:56:34.067Z,8.40
2022-10-19T06:59:04.699Z,13.10
2022-10-19T07:01:31.154Z,10.70
2022-10-19T07:03:58.302Z,7.22
2022-10-19T07:06:27.310Z,10.13
2022-10-19T07:08:54.253Z,14.10
2022-10-19T07:11:23.225Z,12.23
2022-10-19T07:13:50.214Z,12.93
2022-10-19T07:16:21.235Z,13.55
2022-10-19T07:18:49.290Z,10.90
2022-10-19T07:21:17.393Z,11.23
2022-10-19T07:23:45.098Z,12.02
2022-10-19T07:26:33.735Z,11.32
2022-10-19T07:29:02.726Z,15.70
2022-10-19T07:31:30.027Z,10.48
2022-10-19T07:34:01.637Z,13.88
2022-10-19T07:36:29.597Z,14.82
2022-10-19T07:38:56.360Z,14.77
2022-10-19T07:41:24.430Z,9.55
2022-10-19T07:43:51.816Z,14.30
2022-10-19T07:46:20.896Z,19.92
2022-10-19T07:48:47.417Z,13.43
2022-10-19T07:51:15.098Z,14.77
2022-10-19T07:53:42.305Z,13.48
2022-10-19T07:56:20.358Z,12.57
2022-10-19T07:58:47.428Z,10.93
2022-10-19T08:01:16.532Z,13.55
2022-10-19T08:04:42.824Z,15.65
2022-10-19T08:06:31.570Z,16.23
2022-10-19T08:09:01.261Z,13.18
2022-10-19T08:11:30.998Z,18.38
2022-10-19T08:14:02.634Z,15.20
2022-10-19T08:16:32.777Z,14.35
2022-10-19T08:19:03.185Z,17.70
2022-10-19T08:21:30.342Z,17.70
2022-10-19T08:23:57.207Z,20.48
2022-10-19T08:26:24.330Z,21.13
2022-10-19T08:28:50.849Z,19.58
2022-10-19T08:31:20.584Z,18.98
2022-10-19T08:33:48.597Z,15.07
2022-10-19T08:36:15.258Z,17.38
2022-10-19T08:38:44.886Z,13.52
2022-10-19T08:41:22.009Z,18.95
2022-10-19T08:44:00.185Z,17.05
2022-10-19T08:47:06.143Z,18.23
2022-10-19T08:49:34.361Z,19.35
2022-10-19T08:52:05.378Z,19.80
2022-10-19T08:54:50.869Z,15.93
2022-10-19T08:57:35.928Z,18.55
2022-10-19T09:00:17.803Z,19.05
2022-10-19T09:02:58.076Z,17.25
2022-10-19T09:05:37.427Z,13.70
2022-10-19T09:08:08.638Z,14.43
2022-10-19T09:10:38.200Z,16.35
2022-10-19T09:13:24.923Z,14.57
2022-10-19T09:15:55.170Z,13.70
2022-10-19T09:18:30.047Z,10.50
2022-10-19T09:21:28.160Z,11.60
2022-10-19T09:24:16.156Z,11.60
2022-10-19T09:26:53.615Z,13.00
2022-10-19T09:29:33.477Z,16.27
2022-10-19T09:32:01.733Z,11.07
2022-10-19T09:34:49.910Z,10.55
2022-10-19T09:37:24.845Z,10.68
2022-10-19T09:39:55.023Z,15.73
2022-10-19T09:42:32.608Z,11.95
2022-10-19T09:45:01.744Z,12.95
2022-10-19T09:47:35.705Z,13.52
2022-10-19T09:50:20.319Z,12.48
2022-10-19T09:52:51.683Z,17.25
2022-10-19T09:55:25.864Z,20.23
2022-10-19T09:58:06.661Z,18.83
2022-10-19T10:00:39.000Z,15.02
2022-10-19T10:03:07.537Z,18.88
2022-10-19T10:05:39.596Z,16.67
2022-10-19T10:08:15.860Z,17.90
2022-10-19T10:11:16.182Z,16.38
2022-10-19T10:13:52.970Z,18.60
2022-10-19T10:16:21.532Z,17.52
2022-10-19T10:19:00.266Z,16.33
2022-10-19T10:21:36.472Z,15.52
2022-10-19T10:24:05.298Z,15.45
2022-10-19T10:29:02.469Z,17.67
2022-10-19T10:31:29.622Z,15.25
2022-10-19T10:34:12.343Z,15.55
2022-10-19T10:36:51.450Z,17.52
2022-10-19T10:39:20.919Z,18.25
2022-10-19T10:41:48.171Z,13.15
2022-10-19T10:44:32.832Z,14.40
2022-10-19T10:47:03.644Z,13.20
2022-10-19T10:49:34.412Z,14.18
2022-10-19T10:52:04.997Z,16.25
2022-10-19T10:54:34.635Z,12.98
2022-10-19T10:57:13.076Z,14.18
2022-10-19T11:00:08.202Z,11.65
2022-10-19T11:02:36.891Z,18.20
2022-10-19T11:05:33.920Z,17.90
2022-10-19T11:08:09.559Z,17.23
2022-10-19T11:11:22.505Z,18.40
2022-10-19T11:13:55.620Z,12.18
2022-10-19T11:16:25.383Z,19.25
2022-10-19T11:19:19.940Z,20.08
2022-10-19T11:21:49.336Z,13.50
2022-10-19T11:24:25.727Z,19.52
2022-10-19T11:27:06.937Z,18.70
2022-10-19T11:30:03.093Z,19.42
2022-10-19T11:33:03.328Z,18.77
2022-10-19T11:35:53.290Z,16.95
2022-10-19T11:38:32.941Z,18.15
2022-10-19T11:41:18.648Z,16.23
2022-10-19T11:43:56.073Z,18.17
2022-10-19T11:46:40.910Z,18.23
2022-10-19T11:49:20.022Z,18.10
2022-10-19T11:52:00.274Z,17.23
2022-10-19T11:54:27.754Z,14.05
2022-10-19T11:57:04.268Z,16.65
2022-10-19T11:59:41.159Z,17.92
2022-10-19T12:02:49.411Z,17.63
2022-10-19T12:05:44.293Z,14.10
2022-10-19T12:08:39.109Z,12.98
2022-10-19T12:11:57.846Z,10.63
2022-10-19T12:14:26.874Z,10.43
2022-10-19T12:16:58.101Z,12.57
2022-10-19T12:19:30.282Z,13.40
2022-10-19T12:22:04.453Z,13.35
2022-10-19T12:24:32.861Z,13.50
2022-10-19T12:27:05.255Z,17.73
2022-10-19T12:29:34.424Z,16.27
2022-10-19T12:32:02.275Z,15.07
2022-10-19T12:34:37.709Z,12.48
2022-10-19T12:37:07.374Z,15.18
2022-10-19T12:39:36.752Z,15.45
2022-10-19T12:42:13.651Z,16.95
2022-10-19T12:45:06.139Z,16.85
2022-10-19T12:47:36.266Z,18.85
2022-10-19T12:50:02.930Z,14.48
2022-10-19T12:52:41.610Z,17.92
2022-10-19T12:55:24.044Z,13.15
2022-10-19T12:57:59.080Z,13.77
2022-10-19T13:00:28.975Z,13.93
2022-10-19T13:02:59.812Z,10.18
2022-10-19T13:05:31.267Z,10.27
2022-10-19T13:08:08.118Z,15.55
2022-10-19T13:10:37.737Z,11.30
2022-10-19T13:13:06.375Z,12.60
2022-10-19T13:15:38.069Z,16.40
2022-10-19T13:18:11.314Z,12.38
2022-10-19T13:20:46.228Z,12.60
2022-10-19T13:23:13.244Z,8.40
2022-10-19T13:25:43.068Z,10.40
2022-10-19T13:28:10.263Z,11.23
2022-10-19T13:30:39.493Z,12.18
2022-10-19T13:33:25.068Z,9.95
2022-10-19T13:36:00.879Z,7.13
2022-10-19T13:38:40.211Z,8.35
2022-10-19T13:41:22.699Z,8.52
2022-10-19T13:43:53.636Z,10.30
2022-10-19T13:46:26.451Z,9.88
2022-10-19T13:48:56.197Z,6.50
2022-10-19T13:51:28.841Z,12.60
2022-10-19T13:54:19.595Z,10.35
2022-10-19T13:56:49.018Z,9.75
2022-10-19T13:59:43.444Z,8.93
2022-10-19T14:02:51.539Z,11.07
2022-10-19T14:05:30.434Z,8.75
2022-10-19T14:08:23.596Z,9.13
2022-10-19T14:11:01.528Z,10.65
2022-10-19T14:13:32.081Z,6.80
2022-10-19T14:16:02.780Z,8.68
2022-10-19T14:18:32.079Z,11.90
2022-10-19T14:21:07.166Z,8.60
2022-10-19T14:23:44.047Z,8.68
2022-10-19T14:26:20.855Z,10.60
2022-10-19T14:28:53.366Z,8.27
2022-10-19T14:31:23.278Z,13.10
2022-10-19T14:33:56.225Z,10.32
2022-10-19T14:36:25.688Z,8.68
2022-10-19T14:38:54.817Z,10.00
2022-10-19T14:41:27.101Z,7.80
2022-10-19T14:43:57.070Z,8.75
2022-10-19T14:46:30.945Z,7.93
2022-10-19T14:49:15.429Z,9.63
2022-10-19T14:51:58.134Z,10.45
2022-10-19T14:54:37.617Z,9.45
2022-10-19T14:57:15.554Z,10.32
2022-10-19T14:59:51.032Z,7.45
2022-10-19T15:02:29.454Z,8.40
2022-10-19T15:04:58.784Z,8.98
2022-10-19T15:07:26.944Z,8.57
2022-10-19T15:10:01.268Z,6.93
2022-10-19T15:12:38.129Z,7.57
2022-10-19T15:15:14.254Z,10.15
2022-10-19T15:17:53.435Z,9.00
2022-10-19T15:20:30.313Z,8.43
2022-10-19T15:22:58.218Z,8.75
2022-10-19T15:25:37.204Z,9.50
2022-10-19T15:28:39.147Z,7.72
2022-10-19T15:31:19.794Z,9.40
2022-10-19T15:33:55.006Z,7.95
2022-10-19T15:36:22.698Z,9.90
2022-10-19T15:39:17.956Z,8.07
2022-10-19T15:41:51.178Z,7.68
2022-10-19T15:44:40.297Z,8.63
2022-10-19T15:47:20.606Z,8.23
2022-10-19T15:50:08.549Z,8.35
2022-10-19T15:52:36.355Z,6.35
2022-10-19T15:55:03.474Z,7.13
2022-10-19T15:57:40.494Z,8.25
2022-10-19T16:00:13.306Z,7.78
2022-10-19T16:02:39.760Z,8.55
2022-10-19T16:07:36.160Z,8.23
2022-10-19T16:10:04.622Z,9.02
2022-10-19T16:12:31.136Z,8.23
2022-10-19T16:14:57.680Z,8.30
2022-10-19T16:17:26.043Z,8.68
2022-10-19T16:19:52.493Z,10.25
2022-10-19T16:22:22.505Z,8.88
2022-10-19T16:24:49.023Z,9.20
2022-10-19T16:27:18.530Z,8.55
2022-10-19T16:29:45.060Z,8.00
2022-10-19T16:32:13.880Z,9.10
2022-10-19T16:34:42.328Z,9.50
2022-10-19T16:37:08.767Z,9.27
2022-10-19T16:39:35.498Z,10.40
2022-10-19T16:42:01.979Z,8.60
2022-10-19T16:44:29.331Z,9.88
2022-10-19T16:46:57.014Z,8.73
2022-10-19T16:49:26.585Z,11.50
2022-10-19T16:51:56.346Z,9.82
2022-10-19T16:54:25.801Z,10.13
2022-10-19T16:56:52.676Z,9.30
2022-10-19T16:59:19.488Z,9.15
2022-10-19T17:01:46.424Z,8.23
2022-10-19T17:04:14.196Z,8.15
2022-10-19T17:06:40.944Z,8.75
2022-10-19T17:09:40.382Z,9.80
2022-10-19T17:11:54.420Z,10.27
2022-10-19T17:14:21.657Z,8.52
2022-10-19T17:16:48.590Z,10.18
2022-10-19T17:19:15.418Z,10.07
2022-10-19T17:21:42.703Z,8.80
2022-10-19T17:24:20.188Z,9.40
2022-10-19T17:26:48.229Z,11.27
2022-10-19T17:29:14.671Z,9.07
2022-10-19T17:31:42.770Z,8.90
2022-10-19T17:34:10.474Z,9.48
2022-10-19T17:39:18.359Z,7.28
2022-10-19T17:41:46.320Z,9.60
2022-10-19T17:44:13.247Z,9.15
2022-10-19T17:46:39.978Z,8.00
2022-10-19T17:49:06.509Z,7.43
2022-10-19T17:51:34.702Z,8.77
2022-10-19T17:54:06.128Z,9.55
2022-10-19T17:56:34.109Z,8.05
2022-10-19T17:59:02.463Z,8.93
2022-10-19T18:01:29.534Z,9.15
2022-10-19T18:03:57.419Z,9.63
2022-10-19T18:06:26.534Z,10.02
2022-10-19T18:08:54.975Z,9.70
2022-10-19T18:11:35.974Z,11.15
2022-10-19T18:14:03.330Z,9.18
2022-10-19T18:16:50.292Z,11.07
2022-10-19T18:19:17.161Z,12.00
2022-10-19T18:25:21.755Z,10.05
2022-10-19T18:27:57.703Z,9.20
2022-10-19T18:30:24.215Z,9.70
2022-10-19T18:32:50.695Z,9.30
2022-10-19T18:35:27.798Z,10.63
2022-10-19T18:37:54.321Z,12.20
2022-10-19T18:40:20.768Z,10.85
2022-10-19T18:42:47.340Z,9.38
2022-10-19T18:45:14.035Z,9.73
2022-10-19T18:47:46.962Z,9.93
2022-10-19T18:52:41.645Z,8.77
2022-10-19T18:55:08.602Z,11.32
2022-10-19T18:57:35.161Z,9.70
2022-10-19T19:00:06.758Z,10.57
2022-10-19T19:07:43.785Z,10.35
2022-10-19T19:10:23.501Z,9.57
2022-10-19T19:13:05.740Z,10.50
2022-10-19T19:15:32.369Z,8.80
2022-10-19T19:25:06.634Z,8.23
2022-10-19T19:27:33.262Z,9.63
2022-10-19T19:30:04.661Z,9.57
2022-10-19T19:32:31.959Z,11.60
2022-10-19T19:34:58.650Z,9.60
2022-10-19T19:37:25.483Z,9.65
2022-10-19T19:39:54.145Z,12.68
2022-10-19T19:42:24.372Z,10.73
2022-10-19T19:44:53.488Z,11.38
2022-10-19T19:47:22.698Z,8.55
2022-10-19T19:50:10.013Z,10.27
2022-10-19T19:52:45.514Z,7.63
2022-10-19T19:55:17.818Z,9.23
2022-10-19T19:57:49.898Z,9.65
2022-10-19T20:00:21.233Z,8.18
2022-10-19T20:02:54.917Z,13.02
2022-10-19T20:05:21.800Z,12.48
2022-10-19T20:07:50.910Z,9.85
2022-10-19T20:10:22.832Z,9.70
2022-10-19T20:15:39.313Z,9.45
2022-10-19T20:18:06.550Z,7.85
2022-10-19T20:20:33.130Z,9.52
2022-10-19T20:23:14.717Z,8.40
2022-10-19T20:25:41.607Z,9.20
2022-10-19T20:31:24.706Z,7.97
2022-10-19T20:33:51.401Z,8.65
2022-10-19T20:36:39.917Z,7.03
2022-10-19T20:39:06.531Z,6.65
2022-10-19T20:41:33.227Z,6.70
2022-10-19T20:43:59.813Z,5.60
2022-10-19T20:46:28.807Z,6.53
2022-10-19T20:51:50.404Z,6.40
2022-10-19T20:54:16.900Z,5.97
2022-10-19T20:56:43.413Z,8.13
2022-10-19T21:02:50.644Z,5.70
2022-10-19T21:05:40.523Z,5.70
2022-10-19T21:12:06.881Z,5.40
2022-10-19T21:14:33.496Z,4.28
2022-10-19T21:17:00.747Z,4.80
2022-10-19T21:22:49.456Z,5.93
2022-10-19T21:28:08.457Z,4.22
2022-10-19T21:33:25.908Z,5.97
2022-10-19T21:35:57.833Z,5.88
2022-10-19T21:38:24.588Z,5.22
2022-10-19T21:40:51.068Z,6.70
2022-10-19T21:43:17.608Z,4.88
2022-10-19T21:46:01.877Z,4.82
2022-10-19T21:49:05.553Z,4.78
2022-10-19T21:55:23.157Z,5.78
2022-10-19T21:57:50.942Z,5.25
2022-10-19T22:00:17.455Z,7.45
2022-10-19T22:02:43.907Z,5.28
2022-10-19T22:05:53.649Z,4.80
2022-10-19T22:10:48.251Z,5.75
2022-10-19T22:13:20.504Z,6.82
2022-10-19T22:15:47.042Z,5.47
2022-10-19T22:18:13.494Z,5.22
2022-10-19T22:20:42.980Z,5.35
2022-10-19T22:23:09.515Z,4.47
2022-10-19T22:25:50.598Z,5.00
2022-10-19T22:32:06.313Z,5.28
2022-10-19T22:37:28.167Z,6.10
2022-10-19T22:39:57.626Z,7.18
2022-10-19T22:49:40.463Z,5.15
2022-10-19T22:52:56.640Z,3.97
2022-10-19T22:55:23.079Z,6.00
2022-10-19T22:57:49.505Z,4.53
2022-10-19T23:00:16.356Z,6.50
2022-10-19T23:02:45.563Z,7.97
2022-10-19T23:05:12.079Z,7.72
2022-10-19T23:07:43.952Z,6.65
2022-10-19T23:13:58.176Z,6.43
2022-10-19T23:16:24.662Z,6.65
2022-10-19T23:18:51.210Z,5.63
2022-10-19T23:21:17.729Z,6.50
2022-10-19T23:23:44.264Z,4.95
2022-10-19T23:26:16.302Z,7.47
2022-10-19T23:28:44.628Z,7.43
2022-10-19T23:32:05.002Z,5.97
2022-10-19T23:34:32.853Z,5.80
2022-10-19T23:36:59.297Z,6.22
2022-10-19T23:39:29.049Z,5.47
2022-10-19T23:41:57.969Z,6.95
2022-10-19T23:44:45.336Z,5.00
2022-10-19T23:47:11.796Z,6.20
2022-10-19T23:58:26.778Z,4.10
